Terminal Aerodrome Forecast
Issued by NWS Amarillo, TX

Current Version | Previous Version | Text Only | Print | Product List | Glossary On
Versions: 1 2 3 4 5 6 7 8 9 10 11 12 13 14 15 16 17 18 19 20
696
FTUS44 KAMA 281945 AAA
TAFAMA
TAF AMD
KAMA 281945Z 2820/2918 VRB05KT 4SM -SHRA BR BKN040 OVC080
     FM290000 11020G28KT 1/2SM TS FG OVC002CB
     FM290400 03010G20KT 1SM -SHRA OVC004
     FM291200 01015G23KT 1SM -SHRA OVC004
     FM291500 36015G25KT P6SM -SHRA OVC010=

USA.gov is the U.S. government's official web portal to all federal, state and local government web resources and services.